»·PEaware :: N973SE L88-L52

N973SE :: L88-L52

FLIGHT INFORMATION

Flight Status: Arrived
Operator: Privately registered:
United States
More flights under this callsign
Pilot: Stig E. (4778)
Aircraft: PIPER PA-28R-201 ARROW
(P28R)
More flights by this aircraft type
Origin: L88 New Cuyama
United States
Destination: L52 Oceano Co
United States
More flights between these airports :: More routes between these airports
Route:
File this flight plan on PilotEdge
Remarks:
Altitude:
(Current/Filed)
6,500ft
Speed:
(Current/Filed)
120kts
Departed: 24-Mar-18 01:07 PM
Arrived: 24-Mar-18 01:39 PM
Distance/Time
Traveled:
47nm/0:32
Distance/Time
To Go:
Arrived

Flight Plot

Page will automatically refresh every two minutes.


Map Options




Map Legend


Flown Route
Filed Route
Departure Airport
Arrival Airport
Navaid (VOR, NDB)
Fix

Horizontal Profiles

Position Reports

Time Latitude Longitude Heading Altitude Ground
Speed
24-Mar-18 12:57 34.942341 -119.690442 297 2155ft 0kts
24-Mar-18 12:58 34.942341 -119.690442 297 2155ft 0kts
24-Mar-18 12:59 34.942341 -119.690442 297 2155ft 0kts
24-Mar-18 13:00 34.942341 -119.690442 297 2155ft 0kts
24-Mar-18 13:01 34.942341 -119.690442 297 2155ft 0kts
24-Mar-18 13:02 34.942341 -119.690442 297 2155ft 0kts
24-Mar-18 13:03 34.942341 -119.690442 297 2155ft 0kts
24-Mar-18 13:04 34.942341 -119.690442 297 2155ft 0kts
24-Mar-18 13:05 34.942638 -119.691188 241 2151ft 0kts
24-Mar-18 13:06 34.941531 -119.689399 118 2160ft 51kts
24-Mar-18 13:07 34.930426 -119.660380 130 2979ft 102kts
24-Mar-18 13:08 34.924408 -119.672899 292 3870ft 91kts
24-Mar-18 13:09 34.935834 -119.701856 292 4478ft 95kts
24-Mar-18 13:10 34.946450 -119.731024 292 5078ft 92kts
24-Mar-18 13:11 34.956258 -119.759728 291 5674ft 91kts
24-Mar-18 13:12 34.965690 -119.787974 291 6270ft 89kts
24-Mar-18 13:13 34.976089 -119.818572 292 6470ft 106kts
24-Mar-18 13:14 34.987648 -119.852513 292 6477ft 108kts
24-Mar-18 13:15 34.999193 -119.886318 292 6475ft 108kts
24-Mar-18 13:16 35.010718 -119.920096 292 6476ft 108kts
24-Mar-18 13:17 35.022293 -119.953914 292 6476ft 108kts
24-Mar-18 13:18 35.033896 -119.987780 292 6475ft 108kts
24-Mar-18 13:19 35.045569 -120.021708 292 6478ft 108kts
24-Mar-18 13:20 35.057349 -120.055762 292 6483ft 109kts
24-Mar-18 13:21 35.066456 -120.090486 261 6488ft 111kts
24-Mar-18 13:22 35.060328 -120.127548 263 6491ft 111kts
24-Mar-18 13:23 35.054813 -120.164489 263 6494ft 111kts
24-Mar-18 13:24 35.049550 -120.201870 263 6498ft 111kts
24-Mar-18 13:25 35.044408 -120.239529 263 6425ft 117kts
24-Mar-18 13:26 35.038870 -120.280637 263 5967ft 125kts
24-Mar-18 13:27 35.033234 -120.322683 263 5505ft 126kts
24-Mar-18 13:28 35.027580 -120.364919 263 5043ft 126kts
24-Mar-18 13:29 35.021919 -120.407263 263 4526ft 124kts
24-Mar-18 13:30 35.016424 -120.448386 263 3912ft 123kts
24-Mar-18 13:31 35.010910 -120.489578 263 3299ft 123kts
24-Mar-18 13:32 35.030219 -120.520687 317 2668ft 113kts
24-Mar-18 13:33 35.050470 -120.542564 316 1968ft 91kts
24-Mar-18 13:34 35.068603 -120.562603 312 1204ft 80kts
24-Mar-18 13:35 35.080365 -120.582796 303 757ft 71kts
24-Mar-18 13:36 35.090837 -120.602509 304 532ft 66kts
24-Mar-18 13:37 35.100036 -120.619564 305 21ft 53kts
24-Mar-18 13:38 35.103505 -120.625089 117 12ft 9kts
24-Mar-18 13:39 35.103374 -120.624468 32 13ft 0kts
24-Mar-18 13:40 35.103374 -120.624468 32 13ft 0kts
24-Mar-18 13:41 35.103374 -120.624468 32 13ft 0kts
24-Mar-18 13:42 35.103374 -120.624468 32 13ft 0kts
24-Mar-18 13:43 35.103374 -120.624468 32 13ft 0kts
24-Mar-18 13:44 35.103374 -120.624468 32 13ft 0kts
24-Mar-18 13:45 35.103374 -120.624468 32 13ft 0kts
24-Mar-18 13:46 35.103374 -120.624468 32 13ft 0kts
24-Mar-18 13:47 35.103374 -120.624468 32 13ft 0kts
24-Mar-18 13:48 35.103374 -120.624468 32 13ft 0kts
24-Mar-18 13:49 35.103374 -120.624468 32 13ft 0kts
24-Mar-18 13:50 35.103374 -120.624468 32 13ft 0kts
24-Mar-18 13:51 35.103374 -120.624468 32 13ft 0kts
24-Mar-18 13:52 35.103374 -120.624468 32 13ft 0kts

Navigation Log

Ident Type
Flight plan parsing failed, navigation log unavailable